Time;durP1;ratioP1;P1;durP2;ratioP2;P2;SDS_P1;SDS_P2;PMS_P1;PMS_P2;Temp;Humidity;BMP_temperature;BMP_pressure;BME280_temperature;BME280_humidity;BME280_pressure;Samples;Min_cycle;Max_cycle;Signal;HPM_P1;HPM_P2
2021/05/02 00:00:32;;;;;;;17.58;3.40;;;;;;;25.95;21.32;100980.94;5111490;27;20085;-67
2021/05/02 00:03:01;;;;;;;19.75;2.95;;;;;;;25.94;21.39;100986.41;5110767;28;20471;-66
2021/05/02 00:05:30;;;;;;;16.35;3.42;;;;;;;25.93;21.33;100987.41;5110771;28;20050;-67
2021/05/02 00:07:58;;;;;;;21.63;2.95;;;;;;;25.90;21.61;100987.50;5109868;28;20082;-66
2021/05/02 00:10:27;;;;;;;12.45;2.45;;;;;;;25.82;21.71;100995.97;5110064;28;20055;-67
2021/05/02 00:12:55;;;;;;;13.90;2.20;;;;;;;25.83;21.64;100991.44;5111137;28;20043;-67
2021/05/02 00:15:24;;;;;;;17.40;3.70;;;;;;;25.79;21.98;100985.28;5111907;28;20078;-67
2021/05/02 00:17:53;;;;;;;16.77;3.08;;;;;;;25.74;21.83;100988.19;5111451;28;20036;-67
2021/05/02 00:20:23;;;;;;;15.35;1.90;;;;;;;25.71;22.00;100979.31;5111354;28;20070;-67
2021/05/02 00:22:53;;;;;;;10.40;2.10;;;;;;;25.70;21.87;100977.56;5111000;28;20074;-67
2021/05/02 00:25:22;;;;;;;16.52;3.17;;;;;;;25.71;21.93;100969.38;5092109;28;20126;-66
2021/05/02 00:27:49;;;;;;;16.92;3.67;;;;;;;25.74;21.80;100971.94;5111579;28;20040;-67
2021/05/02 00:30:19;;;;;;;15.35;2.67;;;;;;;25.77;21.87;100970.94;5110877;28;20036;-67
2021/05/02 00:32:48;;;;;;;16.83;2.47;;;;;;;25.79;21.92;100963.66;5110892;28;20407;-66
2021/05/02 00:35:16;;;;;;;12.15;3.15;;;;;;;25.80;21.78;100968.97;5111043;28;20042;-67
2021/05/02 00:37:45;;;;;;;15.63;3.00;;;;;;;25.85;21.55;100965.19;5110708;28;20119;-67
2021/05/02 00:40:14;;;;;;;11.77;2.88;;;;;;;25.87;21.67;100969.56;5092747;28;20038;-66
2021/05/02 00:42:48;;;;;;;17.90;2.92;;;;;;;25.93;21.48;100960.34;5111124;28;20563;-67
2021/05/02 00:45:24;;;;;;;14.20;2.50;;;;;;;25.97;21.32;100957.41;5111114;28;20107;-67
2021/05/02 00:47:56;;;;;;;19.67;3.55;;;;;;;26.01;21.56;100958.13;5111907;28;20043;-67
2021/05/02 00:50:29;;;;;;;14.80;3.15;;;;;;;25.99;21.51;100949.22;5111408;28;20445;-66
2021/05/02 00:53:28;;;;;;;16.80;2.45;;;;;;;25.99;21.54;100949.22;5110388;28;20123;-67
2021/05/02 00:55:58;;;;;;;19.98;4.20;;;;;;;25.96;21.60;100955.66;5110732;28;20377;-67
2021/05/02 00:58:37;;;;;;;17.73;3.17;;;;;;;25.97;21.53;100954.72;5111346;28;20383;-67
2021/05/02 01:01:07;;;;;;;20.60;2.97;;;;;;;25.97;21.23;100951.13;5108873;28;20407;-67
2021/05/02 01:03:36;;;;;;;17.40;2.97;;;;;;;25.99;21.26;100952.78;5110163;28;20395;-64
2021/05/02 01:06:09;;;;;;;15.23;3.95;;;;;;;26.03;21.25;100949.00;5109813;28;20126;-64
2021/05/02 01:08:37;;;;;;;17.08;3.40;;;;;;;26.04;21.13;100958.91;5108887;28;20032;-64
2021/05/02 01:11:07;;;;;;;15.18;3.30;;;;;;;26.06;21.16;100953.38;5109649;28;20114;-64
2021/05/02 01:13:37;;;;;;;19.65;3.33;;;;;;;26.11;21.15;100959.50;5110521;28;20115;-65
2021/05/02 01:16:06;;;;;;;16.58;3.03;;;;;;;26.17;20.98;100959.22;5113560;28;20054;-64
2021/05/02 01:18:34;;;;;;;20.77;2.85;;;;;;;26.18;21.15;100961.88;5114873;28;20097;-66
2021/05/02 01:21:01;;;;;;;23.30;3.15;;;;;;;26.17;20.95;100964.63;5114430;28;20115;-64
2021/05/02 01:23:31;;;;;;;17.60;3.40;;;;;;;26.19;20.94;100958.19;5115067;27;20100;-64
2021/05/02 01:26:00;;;;;;;17.95;3.30;;;;;;;26.16;21.14;100962.88;5115444;28;20035;-65
2021/05/02 01:28:28;;;;;;;20.60;4.78;;;;;;;26.13;21.14;100966.56;5114577;27;20066;-64
2021/05/02 01:30:56;;;;;;;23.92;4.50;;;;;;;26.08;21.33;100960.50;5114121;28;20445;-64
2021/05/02 01:33:24;;;;;;;17.90;3.03;;;;;;;26.08;21.13;100963.22;5114963;28;20126;-65
2021/05/02 01:35:51;;;;;;;17.83;4.47;;;;;;;26.06;21.08;100961.50;5114037;28;20500;-65
2021/05/02 01:38:23;;;;;;;15.05;3.45;;;;;;;26.04;21.35;100967.03;5114286;28;20517;-64
2021/05/02 01:40:54;;;;;;;21.67;3.00;;;;;;;25.97;21.40;100960.13;5114046;28;20551;-64
2021/05/02 01:43:21;;;;;;;19.20;3.50;;;;;;;25.93;21.57;100958.47;5114326;28;20618;-64
2021/05/02 01:45:49;;;;;;;18.33;3.45;;;;;;;25.90;21.42;100955.03;5113921;28;20130;-64
2021/05/02 01:48:18;;;;;;;22.38;3.75;;;;;;;25.86;21.53;100958.84;5114208;28;20402;-64
2021/05/02 01:50:51;;;;;;;14.85;3.75;;;;;;;25.84;21.49;100955.31;5113870;28;20497;-64
2021/05/02 01:53:18;;;;;;;17.98;3.78;;;;;;;25.80;21.38;100952.72;5114043;27;20110;-64
2021/05/02 01:55:47;;;;;;;15.63;2.67;;;;;;;25.81;21.14;100950.91;5113494;28;20036;-64
2021/05/02 01:58:15;;;;;;;18.08;3.72;;;;;;;25.78;21.45;100948.34;5113155;28;20040;-64
2021/05/02 02:00:46;;;;;;;16.25;3.55;;;;;;;25.74;21.67;100952.13;5112577;28;20061;-64
2021/05/02 02:03:15;;;;;;;15.73;3.53;;;;;;;25.63;22.05;100952.59;5112902;28;20039;-64
2021/05/02 02:05:42;;;;;;;16.50;2.83;;;;;;;25.45;22.60;100950.69;5124664;27;20044;-64
2021/05/02 02:08:09;;;;;;;15.00;2.20;;;;;;;25.26;23.41;100950.59;5112883;27;20062;-64
2021/05/02 02:10:38;;;;;;;15.57;2.60;;;;;;;25.17;23.80;100948.25;5113716;28;20482;-64
2021/05/02 02:13:06;;;;;;;8.80;2.50;;;;;;;25.06;24.38;100953.22;5113639;28;20039;-64
2021/05/02 02:15:34;;;;;;;13.43;3.05;;;;;;;24.96;25.00;100955.41;5114442;28;20115;-64
2021/05/02 02:18:01;;;;;;;12.68;2.60;;;;;;;24.85;25.35;100952.25;5112738;27;20040;-64
2021/05/02 02:20:29;;;;;;;9.98;2.58;;;;;;;24.72;25.85;100950.09;5114081;28;20032;-65
2021/05/02 02:23:00;;;;;;;10.07;2.75;;;;;;;24.55;26.47;100948.91;5113107;28;20122;-64
2021/05/02 02:25:29;;;;;;;12.88;2.65;;;;;;;24.38;26.80;100951.41;5113350;27;20040;-66
2021/05/02 02:27:57;;;;;;;13.85;3.00;;;;;;;24.21;27.41;100949.38;5113131;28;20039;-67
2021/05/02 02:30:27;;;;;;;12.82;2.95;;;;;;;24.11;27.42;100952.41;5112545;28;20055;-66
2021/05/02 02:32:59;;;;;;;16.25;2.55;;;;;;;24.02;27.79;100947.38;5113322;28;20043;-67
2021/05/02 02:35:27;;;;;;;13.82;2.33;;;;;;;23.95;27.88;100953.94;5112177;28;20515;-66
2021/05/02 02:37:56;;;;;;;16.50;2.97;;;;;;;23.95;27.60;100944.03;5113157;28;20048;-67
2021/05/02 02:40:24;;;;;;;22.55;3.63;;;;;;;24.03;26.35;100944.59;5113266;28;20051;-66
2021/05/02 02:42:52;;;;;;;18.27;2.92;;;;;;;24.20;25.34;100941.31;5112921;28;20530;-66
2021/05/02 02:45:19;;;;;;;19.10;3.40;;;;;;;24.44;24.29;100937.66;5095044;28;20062;-67
2021/05/02 02:47:48;;;;;;;17.02;2.90;;;;;;;24.67;23.93;100933.19;5113115;28;20114;-67
2021/05/02 02:50:18;;;;;;;23.38;3.58;;;;;;;24.84;23.45;100941.50;5101809;27;20058;-67
2021/05/02 02:52:51;;;;;;;17.65;4.03;;;;;;;25.01;23.10;100931.78;5112255;28;20127;-67
2021/05/02 02:55:20;;;;;;;25.70;3.67;;;;;;;25.05;23.01;100934.38;5106798;28;20126;-66
2021/05/02 02:57:54;;;;;;;26.05;3.58;;;;;;;25.08;22.72;100932.41;5112293;28;20045;-67
2021/05/02 03:00:23;;;;;;;15.57;3.67;;;;;;;25.10;23.14;100938.63;5112439;28;20039;-66
2021/05/02 03:02:52;;;;;;;21.20;3.78;;;;;;;25.15;22.76;100939.31;5112955;28;20059;-66
2021/05/02 03:05:23;;;;;;;17.25;3.13;;;;;;;25.15;22.91;100931.22;5111925;28;20130;-66
2021/05/02 03:07:52;;;;;;;23.45;3.85;;;;;;;25.20;22.73;100940.03;5094581;28;20066;-67
2021/05/02 03:10:21;;;;;;;18.30;4.28;;;;;;;25.23;22.77;100945.28;5112532;28;20062;-66
2021/05/02 03:12:51;;;;;;;19.05;3.22;;;;;;;25.25;22.68;100946.13;5112020;28;20567;-67
2021/05/02 03:15:18;;;;;;;23.80;3.72;;;;;;;25.23;22.60;100947.09;5110819;27;20507;-67
2021/05/02 03:17:56;;;;;;;20.25;3.83;;;;;;;25.28;22.53;100940.56;5112398;28;20035;-67
2021/05/02 03:20:28;;;;;;;17.67;2.72;;;;;;;25.32;22.58;100939.50;5112591;28;20051;-66
2021/05/02 03:22:58;;;;;;;23.25;3.85;;;;;;;25.35;22.48;100942.06;5113003;28;20032;-67
2021/05/02 03:25:28;;;;;;;18.17;2.58;;;;;;;25.39;22.39;100942.81;5112453;28;20122;-67
2021/05/02 03:27:58;;;;;;;19.85;3.85;;;;;;;25.44;22.45;100948.03;5112613;28;20126;-67
2021/05/02 03:30:27;;;;;;;19.55;3.13;;;;;;;25.44;22.21;100950.72;5112762;28;20047;-67
2021/05/02 03:32:57;;;;;;;14.77;3.78;;;;;;;25.46;22.19;100946.16;5094782;28;20055;-67
2021/05/02 03:35:31;;;;;;;20.13;4.22;;;;;;;25.54;21.99;100943.97;5111926;27;20488;-67
2021/05/02 03:38:07;;;;;;;18.20;3.55;;;;;;;25.58;21.92;100934.84;5112015;28;20074;-67
2021/05/02 03:40:35;;;;;;;25.45;3.90;;;;;;;25.60;21.80;100950.03;5111648;28;20063;-67
2021/05/02 03:43:02;;;;;;;19.17;3.45;;;;;;;25.64;21.84;100939.97;5112354;28;20032;-67
2021/05/02 03:45:29;;;;;;;16.58;3.42;;;;;;;25.69;21.62;100946.06;5111998;28;20071;-67
2021/05/02 03:47:56;;;;;;;19.42;4.05;;;;;;;25.73;21.57;100940.44;5112082;28;20074;-66
2021/05/02 03:50:25;;;;;;;26.85;3.78;;;;;;;25.82;21.46;100949.09;5112184;28;20048;-67
2021/05/02 03:52:52;;;;;;;22.90;4.55;;;;;;;25.88;21.38;100952.41;5112128;28;20051;-67
2021/05/02 03:55:20;;;;;;;19.05;4.25;;;;;;;25.99;21.21;100954.66;5110882;27;20114;-66
2021/05/02 03:57:47;;;;;;;24.40;4.50;;;;;;;26.07;21.07;100956.03;5110787;28;20123;-67
2021/05/02 04:00:15;;;;;;;22.75;3.47;;;;;;;26.22;21.01;100956.28;5111203;28;20123;-67
2021/05/02 04:02:42;;;;;;;17.92;3.78;;;;;;;26.31;21.08;100964.03;5110412;28;20131;-67
2021/05/02 04:05:10;;;;;;;15.65;4.05;;;;;;;26.43;21.05;100966.16;5111028;27;20127;-67
2021/05/02 04:07:39;;;;;;;22.13;5.53;;;;;;;26.54;21.20;100969.25;5093721;28;20089;-67
2021/05/02 04:10:08;;;;;;;22.35;2.95;;;;;;;26.60;21.59;100974.38;5111132;28;20093;-67
2021/05/02 04:12:35;;;;;;;18.83;3.55;;;;;;;26.61;22.28;100973.41;5110987;28;20058;-68
2021/05/02 04:15:02;;;;;;;16.90;3.35;;;;;;;26.59;22.72;100983.44;5112076;28;20070;-66
2021/05/02 04:17:31;;;;;;;12.80;3.50;;;;;;;26.52;23.21;100981.97;5111326;28;20129;-67
2021/05/02 04:19:58;;;;;;;16.05;3.05;;;;;;;26.61;23.47;100978.84;5111475;28;20047;-67
2021/05/02 04:22:29;;;;;;;16.42;3.38;;;;;;;26.75;24.06;100983.59;5110305;28;20035;-67
2021/05/02 04:24:58;;;;;;;16.50;3.60;;;;;;;26.83;23.92;100990.41;5110980;28;20127;-67
2021/05/02 04:27:25;;;;;;;12.77;2.42;;;;;;;26.93;23.99;100991.75;5091379;28;20089;-67
2021/05/02 04:29:52;;;;;;;13.88;3.13;;;;;;;27.08;23.65;100994.66;5094166;28;20108;-66
2021/05/02 04:32:19;;;;;;;18.75;3.50;;;;;;;27.22;23.85;100989.44;5110972;28;20495;-66
2021/05/02 04:34:47;;;;;;;14.48;3.20;;;;;;;27.33;23.90;100989.78;5109920;28;20032;-67
2021/05/02 04:37:14;;;;;;;22.08;3.60;;;;;;;27.44;24.22;100995.53;5110276;28;20106;-67
2021/05/02 04:39:41;;;;;;;10.95;2.75;;;;;;;27.55;24.52;101004.06;5110627;28;20039;-67
2021/05/02 04:42:10;;;;;;;14.85;3.35;;;;;;;27.72;24.40;100997.75;5110322;28;20063;-67
2021/05/02 04:44:37;;;;;;;13.02;3.53;;;;;;;27.85;24.78;100996.16;5110593;28;20169;-67
2021/05/02 04:47:05;;;;;;;17.38;3.28;;;;;;;27.98;25.15;101001.81;5110302;28;20594;-67
2021/05/02 04:49:32;;;;;;;12.77;3.70;;;;;;;28.03;25.57;100997.03;5111401;28;20124;-67
2021/05/02 04:52:00;;;;;;;19.00;3.30;;;;;;;27.99;25.71;101000.88;5110844;28;20044;-67
2021/05/02 04:54:27;;;;;;;13.02;2.67;;;;;;;28.02;26.52;100998.91;5110747;28;20548;-67
2021/05/02 04:56:54;;;;;;;17.45;3.47;;;;;;;28.15;26.23;101010.00;5110663;28;20048;-67
2021/05/02 04:59:23;;;;;;;20.92;2.63;;;;;;;28.45;26.82;101002.03;5110439;28;20399;-68
2021/05/02 05:01:50;;;;;;;15.00;2.67;;;;;;;28.68;26.61;101003.50;5111041;28;20122;-67
2021/05/02 05:04:17;;;;;;;19.02;3.72;;;;;;;28.95;25.51;101004.66;5109642;28;20403;-67
2021/05/02 05:06:44;;;;;;;16.10;3.38;;;;;;;29.20;25.58;101009.59;5110774;28;20111;-66
2021/05/02 05:09:11;;;;;;;16.58;3.35;;;;;;;29.44;24.85;101000.03;5111087;28;20059;-66
2021/05/02 05:11:38;;;;;;;11.73;2.35;;;;;;;29.64;25.20;101001.56;5110371;28;20499;-64
2021/05/02 05:14:05;;;;;;;17.10;2.72;;;;;;;29.85;25.44;101000.28;5110332;28;20067;-64
2021/05/02 05:16:33;;;;;;;17.60;3.00;;;;;;;30.02;25.71;101000.16;5111224;28;20036;-64
2021/05/02 05:19:01;;;;;;;10.73;3.22;;;;;;;30.15;26.11;100992.09;5111079;28;20048;-65
2021/05/02 05:21:28;;;;;;;16.90;3.55;;;;;;;30.42;25.26;100994.94;5111223;28;20123;-64
2021/05/02 05:23:55;;;;;;;19.40;3.70;;;;;;;30.65;24.73;101001.69;5110744;28;20055;-64
2021/05/02 05:26:22;;;;;;;18.33;2.67;;;;;;;30.92;24.30;100996.31;5110584;28;20157;-64
2021/05/02 05:28:49;;;;;;;14.32;3.72;;;;;;;31.08;24.07;101006.13;5110953;28;20071;-64
2021/05/02 05:31:16;;;;;;;15.07;4.00;;;;;;;31.40;24.16;101001.25;5110848;28;20063;-64
2021/05/02 05:33:45;;;;;;;13.68;2.92;;;;;;;31.80;23.87;101004.91;5109700;28;20119;-65
2021/05/02 05:36:12;;;;;;;18.17;3.42;;;;;;;32.01;24.22;101002.56;5110861;28;20086;-64
2021/05/02 05:38:39;;;;;;;15.85;4.05;;;;;;;32.28;24.18;101000.66;5111043;28;20078;-65
2021/05/02 05:41:07;;;;;;;21.67;3.80;;;;;;;32.43;23.69;100999.53;5109907;28;20483;-65
2021/05/02 05:43:34;;;;;;;14.82;3.42;;;;;;;32.60;23.98;100995.59;5110896;28;20053;-64
2021/05/02 05:46:01;;;;;;;16.67;3.65;;;;;;;32.82;23.64;100998.53;5110314;28;20499;-64
2021/05/02 05:48:28;;;;;;;14.55;3.53;;;;;;;32.99;23.31;100999.16;5110712;28;20040;-65
2021/05/02 05:50:56;;;;;;;18.65;4.50;;;;;;;33.16;23.53;100998.75;5110968;28;20044;-64
2021/05/02 05:53:23;;;;;;;21.27;4.75;;;;;;;33.32;23.67;101004.00;5109571;28;20032;-64
2021/05/02 05:55:57;;;;;;;12.32;3.85;;;;;;;33.62;23.31;101004.38;5109082;28;20411;-64
2021/05/02 05:58:26;;;;;;;19.67;3.83;;;;;;;33.82;23.05;101005.63;5108837;28;20047;-64
2021/05/02 06:00:54;;;;;;;19.15;3.90;;;;;;;33.93;22.75;101002.94;5109693;28;20039;-64
2021/05/02 06:03:21;;;;;;;25.15;5.00;;;;;;;34.06;22.51;101011.06;5113100;28;20035;-64
2021/05/02 06:05:48;;;;;;;18.77;4.10;;;;;;;34.26;22.16;101011.28;5114484;28;20047;-65
2021/05/02 06:08:17;;;;;;;18.08;4.45;;;;;;;34.36;22.29;101016.88;5113339;28;20036;-65
2021/05/02 06:10:44;;;;;;;21.52;12.77;;;;;;;34.58;22.63;101016.91;5114166;28;20119;-64
2021/05/02 06:13:11;;;;;;;17.40;8.05;;;;;;;34.55;23.13;101019.88;5114313;28;20044;-64
2021/05/02 06:15:38;;;;;;;14.35;4.18;;;;;;;34.47;22.88;101021.50;5113788;27;20111;-64
2021/05/02 06:18:06;;;;;;;12.82;3.88;;;;;;;34.36;23.02;101022.38;5112327;28;20039;-65
2021/05/02 06:20:33;;;;;;;12.88;4.10;;;;;;;34.37;23.44;101026.84;5113487;28;20051;-64
2021/05/02 06:23:00;;;;;;;15.38;4.55;;;;;;;34.63;22.78;101016.53;5113762;28;20134;-65
2021/05/02 06:25:28;;;;;;;18.10;4.88;;;;;;;34.74;23.01;101020.19;5113055;28;20074;-65
2021/05/02 06:27:56;;;;;;;18.02;4.28;;;;;;;34.89;22.42;101025.41;5114166;28;20115;-64
2021/05/02 06:30:27;;;;;;;13.85;3.25;;;;;;;35.01;22.45;101021.66;5113682;28;20395;-64
2021/05/02 06:32:54;;;;;;;14.70;3.50;;;;;;;35.11;22.19;101022.66;5113838;28;22332;-64
2021/05/02 06:35:21;;;;;;;11.90;3.20;;;;;;;35.25;21.85;101016.03;5111597;28;20525;-65
2021/05/02 06:37:48;;;;;;;14.38;3.20;;;;;;;35.42;21.83;101016.38;5112743;28;20114;-64
2021/05/02 06:40:16;;;;;;;19.30;4.03;;;;;;;35.61;21.74;101012.03;5113230;28;20428;-64
2021/05/02 06:42:45;;;;;;;17.75;4.70;;;;;;;35.76;21.18;101010.78;5112011;28;20088;-65
2021/05/02 06:45:14;;;;;;;17.02;3.83;;;;;;;35.89;21.43;101017.84;5112986;28;20035;-64
2021/05/02 06:47:41;;;;;;;18.73;4.57;;;;;;;36.03;21.65;101005.63;5110158;28;20556;-65
2021/05/02 06:50:09;;;;;;;17.00;5.05;;;;;;;36.16;21.56;101011.81;5112553;28;20039;-65
2021/05/02 06:52:36;;;;;;;16.58;7.57;;;;;;;36.32;21.79;101006.72;5113088;28;20039;-65
2021/05/02 06:55:04;;;;;;;15.50;5.07;;;;;;;36.49;21.22;101012.63;5105311;27;20487;-65
2021/05/02 06:57:32;;;;;;;19.80;5.68;;;;;;;36.62;20.90;101008.63;5102515;28;20051;-64
2021/05/02 07:00:01;;;;;;;21.10;6.00;;;;;;;36.85;20.44;101012.06;5111186;28;20051;-65
2021/05/02 07:02:28;;;;;;;19.75;4.60;;;;;;;36.93;20.10;101005.88;5109049;28;20047;-65
2021/05/02 07:04:55;;;;;;;24.40;5.05;;;;;;;36.94;19.51;101007.63;5111064;28;20082;-65
2021/05/02 07:07:22;;;;;;;16.85;5.30;;;;;;;36.96;19.46;101003.69;5111439;28;20032;-65
2021/05/02 07:09:49;;;;;;;11.90;3.75;;;;;;;37.11;18.74;101007.84;5112909;28;20126;-65
2021/05/02 07:12:19;;;;;;;14.60;2.95;;;;;;;37.14;17.70;101012.22;5112939;28;20060;-65
2021/05/02 07:14:46;;;;;;;13.13;3.38;;;;;;;37.15;16.87;101013.09;5112048;28;20063;-65
2021/05/02 07:17:15;;;;;;;16.20;3.10;;;;;;;37.13;16.50;101004.94;5112687;28;20477;-65
2021/05/02 07:19:42;;;;;;;13.88;2.55;;;;;;;37.11;16.19;101005.09;5112557;28;20035;-66
2021/05/02 07:22:10;;;;;;;12.00;3.03;;;;;;;37.17;16.19;101003.66;5112863;28;20085;-65
2021/05/02 07:24:37;;;;;;;17.15;2.97;;;;;;;37.21;15.96;101004.25;5112608;28;20042;-65
2021/05/02 07:27:04;;;;;;;15.82;3.45;;;;;;;37.33;16.11;101008.63;5112980;28;20036;-65
2021/05/02 07:29:31;;;;;;;14.30;3.13;;;;;;;37.40;16.07;101001.53;5116371;27;20035;-65
2021/05/02 07:31:58;;;;;;;14.63;2.90;;;;;;;37.46;15.74;101011.97;5130145;27;20094;-65
2021/05/02 07:34:27;;;;;;;14.40;3.28;;;;;;;37.58;15.80;101007.22;5122958;27;20387;-65
2021/05/02 07:36:56;;;;;;;16.15;3.22;;;;;;;37.69;15.58;101013.47;5111063;28;20039;-65
2021/05/02 07:39:24;;;;;;;17.35;2.80;;;;;;;37.72;15.59;101015.94;5111152;28;20055;-65
2021/05/02 07:41:52;;;;;;;17.30;2.75;;;;;;;37.74;15.63;101005.66;5111214;28;20067;-65
2021/05/02 07:44:19;;;;;;;15.00;3.42;;;;;;;37.84;15.36;101013.91;5111328;28;20040;-65
2021/05/02 07:46:47;;;;;;;13.50;3.60;;;;;;;37.92;15.19;101024.19;5111297;28;20463;-65
2021/05/02 07:49:14;;;;;;;16.48;2.58;;;;;;;37.98;15.13;101027.25;5112374;28;20117;-65
2021/05/02 07:51:42;;;;;;;10.90;2.78;;;;;;;37.97;15.02;101025.50;5111758;28;20119;-65
2021/05/02 07:54:09;;;;;;;14.02;3.28;;;;;;;38.07;15.22;101028.31;5110868;28;20031;-65
2021/05/02 07:56:37;;;;;;;15.38;3.47;;;;;;;38.06;15.10;101030.19;5108447;28;20478;-65
2021/05/02 07:59:05;;;;;;;15.23;3.50;;;;;;;38.03;15.03;101029.59;5112699;28;20491;-65
2021/05/02 08:01:32;;;;;;;13.15;3.63;;;;;;;38.01;14.77;101031.63;5111505;28;20040;-65
2021/05/02 08:03:59;;;;;;;13.30;3.08;;;;;;;38.10;15.10;101031.63;5110969;28;20499;-65
2021/05/02 08:06:26;;;;;;;14.77;3.15;;;;;;;38.22;15.11;101029.56;5111624;28;20052;-65
2021/05/02 08:08:55;;;;;;;12.57;2.90;;;;;;;38.21;14.98;101034.22;5111123;28;20054;-65
2021/05/02 08:11:22;;;;;;;10.85;3.20;;;;;;;38.09;14.79;101037.28;5111247;28;20043;-65
2021/05/02 08:13:49;;;;;;;16.00;3.67;;;;;;;37.87;14.83;101035.69;5109513;28;20537;-65
2021/05/02 08:16:16;;;;;;;14.43;2.70;;;;;;;37.87;14.95;101041.19;5109384;28;20444;-65
2021/05/02 08:18:44;;;;;;;14.93;3.33;;;;;;;37.99;14.83;101036.41;5109439;28;20457;-65
2021/05/02 08:21:11;;;;;;;11.30;2.88;;;;;;;38.13;15.31;101039.63;5109496;28;20110;-65
2021/05/02 08:23:38;;;;;;;18.27;3.58;;;;;;;38.18;15.31;101034.50;5111401;28;20055;-65
2021/05/02 08:26:07;;;;;;;16.42;3.17;;;;;;;38.18;15.50;101040.03;5109585;28;20047;-65
2021/05/02 08:28:34;;;;;;;18.77;4.03;;;;;;;38.07;15.38;101031.06;5111179;28;20514;-65
2021/05/02 08:31:01;;;;;;;14.93;3.72;;;;;;;38.04;15.34;101032.22;5111442;28;20043;-65
2021/05/02 08:33:28;;;;;;;16.00;3.10;;;;;;;38.01;15.49;101034.38;5111532;28;20046;-65
2021/05/02 08:35:55;;;;;;;15.48;3.50;;;;;;;37.96;15.54;101028.41;5110409;28;20075;-65
2021/05/02 08:38:23;;;;;;;23.08;3.70;;;;;;;38.01;15.72;101026.09;5111240;28;20503;-65
2021/05/02 08:40:51;;;;;;;19.55;4.00;;;;;;;38.31;15.80;101022.28;5108819;28;20054;-64
2021/05/02 08:43:20;;;;;;;11.10;3.17;;;;;;;38.45;15.85;101021.81;5110814;28;20051;-64
2021/05/02 08:45:49;;;;;;;15.75;2.97;;;;;;;38.42;15.88;101022.97;5109008;28;20185;-64
2021/05/02 08:48:20;;;;;;;15.30;3.90;;;;;;;38.35;15.66;101027.34;5110606;28;20050;-64
2021/05/02 08:50:49;;;;;;;16.85;3.13;;;;;;;38.23;16.00;101020.28;5110855;28;20047;-63
2021/05/02 08:53:16;;;;;;;14.50;3.20;;;;;;;38.18;15.77;101017.97;5110793;28;20119;-64
2021/05/02 08:55:43;;;;;;;16.13;3.42;;;;;;;38.20;15.88;101021.41;5110518;28;20126;-65
2021/05/02 08:58:15;;;;;;;20.23;4.00;;;;;;;38.31;15.84;101023.16;5108547;28;20063;-65
2021/05/02 09:00:44;;;;;;;16.30;3.83;;;;;;;38.35;15.93;101030.13;5109180;28;20044;-64
2021/05/02 09:03:11;;;;;;;82.78;50.42;;;;;;;38.38;15.80;101020.69;5111005;28;20031;-65
2021/05/02 09:05:48;;;;;;;106.93;69.05;;;;;;;38.27;15.90;101017.06;5110386;28;20039;-64
2021/05/02 09:08:31;;;;;;;77.75;49.15;;;;;;;38.40;15.82;101011.22;5105845;28;20035;-65
2021/05/02 09:10:59;;;;;;;19.23;9.52;;;;;;;38.53;16.02;101016.47;5091410;28;20380;-64
2021/05/02 09:13:27;;;;;;;16.27;4.32;;;;;;;38.77;15.62;101016.78;5109825;28;20067;-64
2021/05/02 09:15:59;;;;;;;13.18;3.63;;;;;;;39.00;15.02;101014.50;5109122;28;20455;-65
2021/05/02 09:18:37;;;;;;;18.05;3.17;;;;;;;39.09;14.89;101016.38;5106799;28;20419;-64
2021/05/02 09:21:06;;;;;;;16.63;4.05;;;;;;;39.07;14.98;101018.41;5109433;28;20122;-64
2021/05/02 09:23:39;;;;;;;20.75;3.65;;;;;;;39.10;14.64;101008.94;5109365;28;20146;-64
2021/05/02 09:26:08;;;;;;;14.35;3.60;;;;;;;39.09;14.58;101010.84;5107497;28;20383;-64
2021/05/02 09:28:42;;;;;;;15.38;3.25;;;;;;;39.06;14.45;101019.44;5108731;28;20040;-66
2021/05/02 09:31:12;;;;;;;15.60;4.57;;;;;;;39.06;14.74;101016.66;5109899;28;20032;-64
2021/05/02 09:33:39;;;;;;;19.20;3.55;;;;;;;39.23;14.78;101015.84;5110674;28;20120;-64
2021/05/02 09:36:12;;;;;;;14.75;3.63;;;;;;;39.39;14.90;101018.81;5110586;28;20097;-64
2021/05/02 09:38:40;;;;;;;17.15;3.75;;;;;;;39.36;14.78;101012.75;5112643;28;20058;-65
2021/05/02 09:41:09;;;;;;;13.57;3.50;;;;;;;39.40;14.82;101017.78;5111474;28;20124;-65
2021/05/02 09:43:39;;;;;;;12.60;4.30;;;;;;;39.53;14.71;101013.78;5113429;28;20510;-65
2021/05/02 09:46:29;;;;;;;25.00;11.60;;;;;;;39.63;14.49;101012.69;5113899;28;20046;-65
2021/05/02 09:48:58;;;;;;;24.15;6.65;;;;;;;39.75;14.11;101013.31;5114456;27;20390;-65
2021/05/02 09:51:27;;;;;;;35.03;12.70;;;;;;;39.77;13.82;101009.38;5114595;28;20506;-64
2021/05/02 09:54:09;;;;;;;24.65;6.65;;;;;;;39.67;13.63;101010.47;5113767;28;20043;-64
2021/05/02 09:56:42;;;;;;;17.80;4.70;;;;;;;39.62;13.35;101021.13;5114147;28;20430;-65
2021/05/02 09:59:29;;;;;;;17.58;4.72;;;;;;;39.53;13.28;101016.53;5114298;28;20050;-65
2021/05/02 10:02:18;;;;;;;22.00;8.55;;;;;;;39.57;13.91;101020.75;5096158;28;20036;-65
2021/05/02 10:04:47;;;;;;;17.20;3.75;;;;;;;39.52;14.02;101017.59;5112618;28;20040;-65
2021/05/02 10:07:15;;;;;;;16.15;4.85;;;;;;;39.45;14.01;101015.41;5113429;28;20046;-65
2021/05/02 10:09:43;;;;;;;15.60;3.63;;;;;;;39.30;13.98;101022.50;5113685;28;20043;-65
2021/05/02 10:12:11;;;;;;;21.75;4.15;;;;;;;39.16;14.36;101013.84;5114239;28;20039;-64
2021/05/02 10:14:40;;;;;;;13.00;3.72;;;;;;;39.16;14.46;101014.72;5113853;28;20116;-65
2021/05/02 10:17:09;;;;;;;16.67;3.83;;;;;;;39.26;14.06;101015.53;5113429;28;20112;-65
2021/05/02 10:19:36;;;;;;;15.25;4.25;;;;;;;39.33;14.25;101015.78;5113374;27;20046;-65
2021/05/02 10:22:04;;;;;;;13.98;3.25;;;;;;;39.35;13.81;101019.25;5113754;28;20108;-65
2021/05/02 10:24:31;;;;;;;15.93;4.35;;;;;;;39.19;13.85;101022.69;5113274;28;20071;-64
2021/05/02 10:26:59;;;;;;;15.50;3.70;;;;;;;39.05;14.36;101024.09;5112769;28;20074;-64
2021/05/02 10:29:30;;;;;;;16.50;4.00;;;;;;;38.92;14.45;101031.00;5112943;27;20050;-65
2021/05/02 10:32:01;;;;;;;16.02;3.53;;;;;;;38.75;15.12;101029.00;5113519;28;20547;-64
2021/05/02 10:34:31;;;;;;;18.05;4.25;;;;;;;38.66;15.37;101020.59;5112955;28;20058;-64
2021/05/02 10:37:28;;;;;;;15.93;3.35;;;;;;;38.80;15.66;101022.00;5113124;28;20122;-65
2021/05/02 10:39:57;;;;;;;15.20;3.35;;;;;;;38.76;16.08;101025.22;5112357;28;20070;-64
2021/05/02 10:42:39;;;;;;;15.07;3.33;;;;;;;38.84;15.95;101017.94;5112363;28;20032;-64
2021/05/02 10:45:42;;;;;;;13.90;3.92;;;;;;;38.91;15.87;101010.78;5112265;28;20051;-64
2021/05/02 10:48:28;;;;;;;20.10;4.03;;;;;;;39.01;15.15;100999.69;5107947;28;20123;-65
2021/05/02 10:50:57;;;;;;;17.52;3.40;;;;;;;39.01;14.24;101010.72;5113209;28;21247;-64
2021/05/02 10:53:26;;;;;;;13.48;3.03;;;;;;;38.98;13.93;101005.53;5113103;28;20118;-64
2021/05/02 10:55:58;;;;;;;13.60;2.92;;;;;;;39.05;13.45;101012.19;5112860;28;20031;-65
2021/05/02 10:58:28;;;;;;;14.88;3.35;;;;;;;39.24;13.05;101008.44;5113067;28;20059;-64
2021/05/02 11:00:57;;;;;;;13.98;3.58;;;;;;;39.43;13.41;101013.84;5113127;27;20043;-67
2021/05/02 11:03:53;;;;;;;13.68;3.13;;;;;;;39.57;13.20;101015.22;5112853;28;20086;-64
2021/05/02 11:06:56;;;;;;;15.70;3.58;;;;;;;39.69;13.18;101019.47;5112843;28;20058;-65
2021/05/02 11:09:24;;;;;;;16.00;3.83;;;;;;;39.66;13.33;101023.41;5102129;27;20062;-64
2021/05/02 11:11:54;;;;;;;16.42;3.70;;;;;;;39.79;13.28;101020.25;5112682;28;20553;-64
2021/05/02 11:14:35;;;;;;;15.98;3.97;;;;;;;39.50;13.66;101025.16;5111039;28;20043;-64
2021/05/02 11:17:27;;;;;;;11.68;3.03;;;;;;;38.96;14.50;101026.91;5111556;27;20039;-64
2021/05/02 11:20:00;;;;;;;19.80;3.83;;;;;;;38.64;15.24;101019.03;5111758;28;20431;-64
2021/05/02 11:22:31;;;;;;;15.18;3.65;;;;;;;38.55;15.18;101020.78;5112372;28;20070;-64
2021/05/02 11:25:00;;;;;;;14.38;4.07;;;;;;;38.50;15.35;101020.38;5112279;28;20039;-64
2021/05/02 11:27:48;;;;;;;17.70;5.47;;;;;;;38.50;15.87;101025.03;5111732;28;20039;-64